createdAt,value
2017-04-24T00:00:05.547Z,1014.72
2017-04-24T00:00:46.181Z,1014.69
2017-04-24T00:01:26.758Z,1014.72
2017-04-24T00:02:07.329Z,1014.68
2017-04-24T00:02:47.942Z,1014.67
2017-04-24T00:03:28.530Z,1014.66
2017-04-24T00:04:09.143Z,1014.71
2017-04-24T00:04:49.783Z,1014.7
2017-04-24T00:05:30.361Z,1014.7
2017-04-24T00:06:11.002Z,1014.66
2017-04-24T00:06:51.586Z,1014.66
2017-04-24T00:07:32.208Z,1014.71
2017-04-24T00:08:12.848Z,1014.67
2017-04-24T00:08:53.453Z,1014.67
2017-04-24T00:09:34.103Z,1014.7
2017-04-24T00:10:14.686Z,1014.69
2017-04-24T00:10:55.288Z,1014.72
2017-04-24T00:11:36.081Z,1014.69
2017-04-24T00:12:16.678Z,1014.65
2017-04-24T00:12:57.278Z,1014.68
2017-04-24T00:13:37.907Z,1014.67
2017-04-24T00:14:18.517Z,1014.69
2017-04-24T00:14:59.145Z,1014.7
2017-04-24T00:15:39.798Z,1014.67
2017-04-24T00:16:20.383Z,1014.7
2017-04-24T00:17:00.999Z,1014.67
2017-04-24T00:17:41.589Z,1014.71
2017-04-24T00:18:22.208Z,1014.69
2017-04-24T00:19:02.791Z,1014.68
2017-04-24T00:19:43.380Z,1014.7
2017-04-24T00:20:24.070Z,1014.7
2017-04-24T00:21:04.689Z,1014.69
2017-04-24T00:21:45.298Z,1014.66
2017-04-24T00:22:25.898Z,1014.7
2017-04-24T00:23:06.467Z,1014.69
2017-04-24T00:23:47.052Z,1014.68
2017-04-24T00:24:27.653Z,1014.66
2017-04-24T00:25:08.264Z,1014.65
2017-04-24T00:25:48.946Z,1014.64
2017-04-24T00:26:29.494Z,1014.66
2017-04-24T00:27:10.091Z,1014.63
2017-04-24T00:27:50.663Z,1014.68
2017-04-24T00:28:31.246Z,1014.63
2017-04-24T00:29:11.825Z,1014.64
2017-04-24T00:29:52.413Z,1014.63
2017-04-24T00:30:32.984Z,1014.67
2017-04-24T00:31:13.565Z,1014.62
2017-04-24T00:31:54.108Z,1014.65
2017-04-24T00:32:34.693Z,1014.65
2017-04-24T00:33:15.270Z,1014.57
2017-04-24T00:33:55.855Z,1014.65
2017-04-24T00:34:36.441Z,1014.57
2017-04-24T00:35:17.024Z,1014.6
2017-04-24T00:35:57.601Z,1014.62
2017-04-24T00:36:38.175Z,1014.58
2017-04-24T00:37:18.771Z,1014.56
2017-04-24T00:37:59.379Z,1014.56
2017-04-24T00:38:39.961Z,1014.55
2017-04-24T00:39:20.594Z,1014.52
2017-04-24T00:40:01.175Z,1014.55
2017-04-24T00:40:41.748Z,1014.56
2017-04-24T00:41:22.388Z,1014.55
2017-04-24T00:42:02.947Z,1014.57
2017-04-24T00:42:43.522Z,1014.59
2017-04-24T00:43:24.114Z,1014.54
2017-04-24T00:44:04.677Z,1014.61
2017-04-24T00:44:45.253Z,1014.56
2017-04-24T00:45:25.896Z,1014.56
2017-04-24T00:46:06.457Z,1014.57
2017-04-24T00:46:47.036Z,1014.57
2017-04-24T00:47:27.653Z,1014.51
2017-04-24T00:48:08.261Z,1014.55
2017-04-24T00:48:48.863Z,1014.55
2017-04-24T00:49:29.478Z,1014.57
2017-04-24T00:50:10.061Z,1014.51
2017-04-24T00:50:50.654Z,1014.54
2017-04-24T00:51:31.240Z,1014.55
2017-04-24T00:52:11.919Z,1014.54
2017-04-24T00:52:52.525Z,1014.49
2017-04-24T00:53:33.167Z,1014.53
2017-04-24T00:54:13.750Z,1014.55
2017-04-24T00:54:54.409Z,1014.5
2017-04-24T00:55:35.025Z,1014.51
2017-04-24T00:56:15.584Z,1014.51
2017-04-24T00:56:56.210Z,1014.48
2017-04-24T00:57:36.820Z,1014.5
2017-04-24T00:58:17.384Z,1014.5
2017-04-24T00:58:57.965Z,1014.5
2017-04-24T00:59:38.556Z,1014.5
2017-04-24T01:00:19.129Z,1014.43
2017-04-24T01:00:59.694Z,1014.48
2017-04-24T01:01:40.274Z,1014.45
2017-04-24T01:02:20.855Z,1014.44
2017-04-24T01:03:01.475Z,1014.43
2017-04-24T01:03:42.059Z,1014.42
2017-04-24T01:04:22.637Z,1014.44
2017-04-24T01:05:03.227Z,1014.43
2017-04-24T01:05:43.799Z,1014.4
2017-04-24T01:06:24.382Z,1014.43
2017-04-24T01:07:04.951Z,1014.41
2017-04-24T01:07:45.559Z,1014.42
2017-04-24T01:08:26.123Z,1014.43
2017-04-24T01:09:06.739Z,1014.46
2017-04-24T01:09:47.318Z,1014.42
2017-04-24T01:10:27.901Z,1014.41
2017-04-24T01:11:08.485Z,1014.42
2017-04-24T01:11:49.095Z,1014.42
2017-04-24T01:12:29.682Z,1014.41
2017-04-24T01:13:10.277Z,1014.42
2017-04-24T01:13:50.886Z,1014.42
2017-04-24T01:14:31.481Z,1014.41
2017-04-24T01:15:12.068Z,1014.41
2017-04-24T01:15:52.661Z,1014.42
2017-04-24T01:16:33.269Z,1014.45
2017-04-24T01:17:13.884Z,1014.44
2017-04-24T01:17:54.444Z,1014.46
2017-04-24T01:18:35.027Z,1014.47
2017-04-24T01:19:15.617Z,1014.47
2017-04-24T01:19:56.216Z,1014.44
2017-04-24T01:20:36.767Z,1014.48
2017-04-24T01:21:17.338Z,1014.47
2017-04-24T01:21:57.915Z,1014.47
2017-04-24T01:22:38.491Z,1014.47
2017-04-24T01:23:19.056Z,1014.45
2017-04-24T01:23:59.667Z,1014.49
2017-04-24T01:24:40.313Z,1014.49
2017-04-24T01:25:20.890Z,1014.44
2017-04-24T01:26:01.471Z,1014.45
2017-04-24T01:26:42.044Z,1014.41
2017-04-24T01:27:22.657Z,1014.43
2017-04-24T01:28:03.242Z,1014.44
2017-04-24T01:28:43.821Z,1014.44
2017-04-24T01:29:24.442Z,1014.42
2017-04-24T01:30:05.033Z,1014.37
2017-04-24T01:30:45.647Z,1014.42
2017-04-24T01:31:26.235Z,1014.42
2017-04-24T01:32:06.827Z,1014.4
2017-04-24T01:32:47.447Z,1014.39
2017-04-24T01:33:28.053Z,1014.41
2017-04-24T01:34:08.647Z,1014.37
2017-04-24T01:34:49.250Z,1014.38
2017-04-24T01:35:29.813Z,1014.39
2017-04-24T01:36:10.390Z,1014.36
2017-04-24T01:36:50.999Z,1014.41
2017-04-24T01:37:31.569Z,1014.4
2017-04-24T01:38:12.161Z,1014.39
2017-04-24T01:38:52.764Z,1014.36
2017-04-24T01:39:33.335Z,1014.36
2017-04-24T01:40:13.961Z,1014.32
2017-04-24T01:40:54.558Z,1014.33
2017-04-24T01:41:35.135Z,1014.37
2017-04-24T01:42:15.719Z,1014.31
2017-04-24T01:42:56.338Z,1014.31
2017-04-24T01:43:36.922Z,1014.33
2017-04-24T01:44:17.532Z,1014.3
2017-04-24T01:44:58.172Z,1014.29
2017-04-24T01:45:38.795Z,1014.33
2017-04-24T01:46:19.386Z,1014.31
2017-04-24T01:46:59.954Z,1014.31
2017-04-24T01:47:40.526Z,1014.3
2017-04-24T01:48:21.084Z,1014.24
2017-04-24T01:49:01.706Z,1014.28
2017-04-24T01:49:42.272Z,1014.27
2017-04-24T01:50:22.866Z,1014.23
2017-04-24T01:51:03.470Z,1014.26
2017-04-24T01:51:44.036Z,1014.23
2017-04-24T01:52:24.663Z,1014.22
2017-04-24T01:53:05.269Z,1014.21
2017-04-24T01:53:45.898Z,1014.22
2017-04-24T01:54:26.455Z,1014.23
2017-04-24T01:55:07.031Z,1014.22
2017-04-24T01:55:47.667Z,1014.21
2017-04-24T01:56:28.252Z,1014.19
2017-04-24T01:57:08.885Z,1014.19
2017-04-24T01:57:49.529Z,1014.2
2017-04-24T01:58:30.145Z,1014.18
2017-04-24T01:59:10.735Z,1014.15
2017-04-24T01:59:51.302Z,1014.22
2017-04-24T02:00:31.899Z,1014.21
2017-04-24T02:01:12.508Z,1014.16
2017-04-24T02:01:53.147Z,1014.15
2017-04-24T02:02:33.725Z,1014.12
2017-04-24T02:03:14.311Z,1014.16
2017-04-24T02:03:54.901Z,1014.12
2017-04-24T02:04:35.462Z,1014.15
2017-04-24T02:05:16.035Z,1014.08
2017-04-24T02:05:56.612Z,1014.13
2017-04-24T02:06:37.191Z,1014.14
2017-04-24T02:07:17.772Z,1014.07
2017-04-24T02:07:58.341Z,1014.15
2017-04-24T02:08:38.925Z,1014.11
2017-04-24T02:09:19.514Z,1014.04
2017-04-24T02:10:00.089Z,1014.11
2017-04-24T02:10:40.704Z,1014.07
2017-04-24T02:11:21.298Z,1014.06
2017-04-24T02:12:01.892Z,1014.09
2017-04-24T02:12:42.469Z,1014.06
2017-04-24T02:13:23.061Z,1014.03
2017-04-24T02:14:03.667Z,1014.04
2017-04-24T02:14:44.314Z,1014.02
2017-04-24T02:15:24.892Z,1014.09
2017-04-24T02:16:05.448Z,1014.03
2017-04-24T02:16:46.050Z,1014.04
2017-04-24T02:17:26.637Z,1014.07
2017-04-24T02:18:07.243Z,1014.04
2017-04-24T02:18:47.836Z,1014.05
2017-04-24T02:19:28.451Z,1014.04
2017-04-24T02:20:09.021Z,1014.02
2017-04-24T02:20:49.665Z,1013.99
2017-04-24T02:21:30.242Z,1014.04
2017-04-24T02:22:10.837Z,1013.97
2017-04-24T02:22:51.437Z,1014
2017-04-24T02:23:32.054Z,1013.97
2017-04-24T02:24:12.624Z,1013.99
2017-04-24T02:24:53.201Z,1014.02
2017-04-24T02:25:33.779Z,1013.98
2017-04-24T02:26:14.372Z,1014
2017-04-24T02:26:54.985Z,1013.98
2017-04-24T02:27:35.561Z,1013.97
2017-04-24T02:28:16.137Z,1013.98
2017-04-24T02:28:56.728Z,1013.97
2017-04-24T02:29:37.378Z,1013.97
2017-04-24T02:30:17.961Z,1013.92
2017-04-24T02:30:58.555Z,1013.97
2017-04-24T02:31:39.132Z,1013.87
2017-04-24T02:32:19.730Z,1013.89
2017-04-24T02:33:00.303Z,1013.9
2017-04-24T02:33:40.870Z,1013.89
2017-04-24T02:34:21.449Z,1013.92
2017-04-24T02:35:02.032Z,1013.86
2017-04-24T02:35:42.604Z,1013.92
2017-04-24T02:36:23.179Z,1013.88
2017-04-24T02:37:03.756Z,1013.86
2017-04-24T02:37:44.330Z,1013.9
2017-04-24T02:38:24.910Z,1013.88
2017-04-24T02:39:05.518Z,1013.88
2017-04-24T02:39:46.149Z,1013.86
2017-04-24T02:40:26.720Z,1013.86
2017-04-24T02:41:07.312Z,1013.88
2017-04-24T02:41:47.874Z,1013.85
2017-04-24T02:42:28.462Z,1013.83
2017-04-24T02:43:09.046Z,1013.87
2017-04-24T02:43:49.621Z,1013.84
2017-04-24T02:44:30.220Z,1013.83
2017-04-24T02:45:10.794Z,1013.81
2017-04-24T02:45:51.382Z,1013.84
2017-04-24T02:46:31.966Z,1013.75
2017-04-24T02:47:12.570Z,1013.78
2017-04-24T02:47:53.142Z,1013.77
2017-04-24T02:48:33.737Z,1013.77
2017-04-24T02:49:14.331Z,1013.76
2017-04-24T02:49:54.960Z,1013.77
2017-04-24T02:50:35.523Z,1013.78
2017-04-24T02:51:16.129Z,1013.75
2017-04-24T02:51:56.720Z,1013.75
2017-04-24T02:52:37.318Z,1013.72
2017-04-24T02:53:17.894Z,1013.71
2017-04-24T02:53:58.481Z,1013.7
2017-04-24T02:54:39.040Z,1013.73
2017-04-24T02:55:19.625Z,1013.71
2017-04-24T02:56:00.226Z,1013.74
2017-04-24T02:56:40.816Z,1013.74
2017-04-24T02:57:21.395Z,1013.76
2017-04-24T02:58:01.971Z,1013.72
2017-04-24T02:58:42.565Z,1013.75
2017-04-24T02:59:23.152Z,1013.7
2017-04-24T03:00:03.740Z,1013.75
2017-04-24T03:00:44.338Z,1013.73
2017-04-24T03:01:24.952Z,1013.76
2017-04-24T03:02:05.587Z,1013.72
2017-04-24T03:02:46.187Z,1013.71
2017-04-24T03:03:26.772Z,1013.71
2017-04-24T03:04:07.369Z,1013.69
2017-04-24T03:04:47.970Z,1013.64
2017-04-24T03:05:28.558Z,1013.65
2017-04-24T03:06:09.145Z,1013.66
2017-04-24T03:06:49.728Z,1013.66
2017-04-24T03:07:30.306Z,1013.65
2017-04-24T03:08:10.906Z,1013.68
2017-04-24T03:08:51.505Z,1013.65
2017-04-24T03:09:32.046Z,1013.61
2017-04-24T03:10:12.625Z,1013.63
2017-04-24T03:10:53.251Z,1013.59
2017-04-24T03:11:33.852Z,1013.62
2017-04-24T03:12:14.452Z,1013.6
2017-04-24T03:14:32.721Z,1013.57
2017-04-24T03:15:13.417Z,1013.6
2017-04-24T03:15:54.061Z,1013.58
2017-04-24T03:16:34.633Z,1013.6
2017-04-24T03:17:15.218Z,1013.59
2017-04-24T03:17:55.788Z,1013.6
2017-04-24T03:18:36.372Z,1013.59
2017-04-24T03:19:16.964Z,1013.52
2017-04-24T03:19:57.581Z,1013.57
2017-04-24T03:20:38.183Z,1013.55
2017-04-24T03:21:18.777Z,1013.56
2017-04-24T03:21:59.386Z,1013.58
2017-04-24T03:22:39.989Z,1013.55
2017-04-24T03:23:20.638Z,1013.54
2017-04-24T03:24:01.200Z,1013.53
2017-04-24T03:24:41.870Z,1013.53
2017-04-24T03:25:22.376Z,1013.53
2017-04-24T03:26:02.972Z,1013.55
2017-04-24T03:26:43.569Z,1013.53
2017-04-24T03:27:24.191Z,1013.55
2017-04-24T03:28:04.765Z,1013.56
2017-04-24T03:28:45.333Z,1013.53
2017-04-24T03:29:25.930Z,1013.55
2017-04-24T03:30:06.487Z,1013.57
2017-04-24T03:30:47.044Z,1013.53
2017-04-24T03:31:27.649Z,1013.5
2017-04-24T03:32:08.217Z,1013.47
2017-04-24T03:32:48.796Z,1013.53
2017-04-24T03:33:29.375Z,1013.52
2017-04-24T03:34:09.982Z,1013.54
2017-04-24T03:34:50.566Z,1013.5
2017-04-24T03:35:31.216Z,1013.54
2017-04-24T03:36:11.780Z,1013.49
2017-04-24T03:36:52.366Z,1013.49
2017-04-24T03:37:32.934Z,1013.51
2017-04-24T03:38:13.507Z,1013.52
2017-04-24T03:38:54.139Z,1013.47
2017-04-24T03:39:34.741Z,1013.48
2017-04-24T03:40:15.304Z,1013.46
2017-04-24T03:40:55.893Z,1013.48
2017-04-24T03:41:36.471Z,1013.42
2017-04-24T03:42:17.031Z,1013.44
2017-04-24T03:42:57.626Z,1013.43
2017-04-24T03:43:38.206Z,1013.43
2017-04-24T03:44:18.769Z,1013.42
2017-04-24T03:44:59.337Z,1013.43
2017-04-24T03:45:39.913Z,1013.44
2017-04-24T03:46:20.509Z,1013.4
2017-04-24T03:47:01.086Z,1013.42
2017-04-24T03:47:41.672Z,1013.43
2017-04-24T03:48:22.293Z,1013.4
2017-04-24T03:49:02.874Z,1013.42
2017-04-24T03:49:43.478Z,1013.42
2017-04-24T03:50:24.051Z,1013.42
2017-04-24T03:51:04.625Z,1013.38
2017-04-24T03:51:45.260Z,1013.39
2017-04-24T03:52:25.873Z,1013.4
2017-04-24T03:53:06.456Z,1013.4
2017-04-24T03:53:47.056Z,1013.42
2017-04-24T03:54:27.647Z,1013.4
2017-04-24T03:55:08.235Z,1013.39
2017-04-24T03:55:48.812Z,1013.4
2017-04-24T03:56:29.394Z,1013.4
2017-04-24T03:57:09.956Z,1013.41
2017-04-24T03:57:50.522Z,1013.38
2017-04-24T03:58:31.088Z,1013.39
2017-04-24T03:59:11.710Z,1013.38
2017-04-24T03:59:52.263Z,1013.4
2017-04-24T04:00:32.825Z,1013.42
2017-04-24T04:01:13.391Z,1013.43
2017-04-24T04:01:53.951Z,1013.39
2017-04-24T04:02:34.568Z,1013.34
2017-04-24T04:03:15.177Z,1013.37
2017-04-24T04:03:55.762Z,1013.35
2017-04-24T04:04:36.380Z,1013.34
2017-04-24T04:05:16.955Z,1013.31
2017-04-24T04:05:57.520Z,1013.3
2017-04-24T04:06:38.102Z,1013.33
2017-04-24T04:07:18.691Z,1013.31
2017-04-24T04:07:59.273Z,1013.29
2017-04-24T04:08:39.892Z,1013.34
2017-04-24T04:09:20.515Z,1013.3
2017-04-24T04:10:01.111Z,1013.32
2017-04-24T04:10:41.685Z,1013.27
2017-04-24T04:11:22.286Z,1013.22
2017-04-24T04:12:02.859Z,1013.25
2017-04-24T04:12:43.427Z,1013.24
2017-04-24T04:13:24.023Z,1013.23
2017-04-24T04:14:04.617Z,1013.19
2017-04-24T04:14:45.184Z,1013.22
2017-04-24T04:15:25.776Z,1013.16
2017-04-24T04:16:06.357Z,1013.15
2017-04-24T04:16:46.940Z,1013.11
2017-04-24T04:17:27.528Z,1013.16
2017-04-24T04:18:08.113Z,1013.15
2017-04-24T04:18:48.697Z,1013.13
2017-04-24T04:19:29.309Z,1013.11
2017-04-24T04:20:09.871Z,1013.15
2017-04-24T04:20:50.453Z,1013.14
2017-04-24T04:21:31.023Z,1013.14
2017-04-24T04:22:11.588Z,1013.11
2017-04-24T04:22:52.165Z,1013.12
2017-04-24T04:23:32.750Z,1013.12
2017-04-24T04:24:13.343Z,1013.09
2017-04-24T04:24:53.933Z,1013.06
2017-04-24T04:25:34.501Z,1013.11
2017-04-24T04:26:15.112Z,1013.06
2017-04-24T04:26:55.739Z,1013.05
2017-04-24T04:27:36.298Z,1013.07
2017-04-24T04:28:16.877Z,1013.09
2017-04-24T04:28:57.461Z,1013.03
2017-04-24T04:29:38.087Z,1013.03
2017-04-24T04:30:18.656Z,1013.02
2017-04-24T04:30:59.281Z,1013.02
2017-04-24T04:31:39.884Z,1013.01
2017-04-24T04:32:20.540Z,1013
2017-04-24T04:33:01.140Z,1013.03
2017-04-24T04:33:41.708Z,1013.05
2017-04-24T04:34:22.359Z,1013.03
2017-04-24T04:35:02.930Z,1013.02
2017-04-24T04:35:43.497Z,1013.03
2017-04-24T04:36:24.065Z,1013.05
2017-04-24T04:37:04.689Z,1013
2017-04-24T04:37:45.267Z,1013.07
2017-04-24T04:38:25.851Z,1013.05
2017-04-24T04:39:06.428Z,1013.08
2017-04-24T04:39:46.999Z,1013.06
2017-04-24T04:40:27.573Z,1013.06
2017-04-24T04:41:08.178Z,1013.13
2017-04-24T04:41:48.741Z,1013.14
2017-04-24T04:42:29.315Z,1013.12
2017-04-24T04:43:09.915Z,1013.06
2017-04-24T04:43:50.476Z,1013.1
2017-04-24T04:44:31.074Z,1013.08
2017-04-24T04:45:11.782Z,1013.05
2017-04-24T04:45:52.377Z,1013.11
2017-04-24T04:46:32.958Z,1013.07
2017-04-24T04:47:13.546Z,1013.08
2017-04-24T04:47:54.138Z,1013.07
2017-04-24T04:48:34.776Z,1013.07
2017-04-24T04:49:15.352Z,1013.09
2017-04-24T04:49:55.926Z,1013.06
2017-04-24T04:50:36.497Z,1013.02
2017-04-24T04:51:17.081Z,1013.05
2017-04-24T04:51:57.652Z,1013.02
2017-04-24T04:52:38.273Z,1013.03
2017-04-24T04:53:18.846Z,1013.01
2017-04-24T04:53:59.477Z,1013.03
2017-04-24T04:54:40.112Z,1013.02
2017-04-24T04:55:20.696Z,1013
2017-04-24T04:56:01.289Z,1013.02
2017-04-24T04:56:41.866Z,1012.99
2017-04-24T04:57:22.444Z,1012.93
2017-04-24T04:58:03.043Z,1012.99
2017-04-24T04:58:43.930Z,1012.97
2017-04-24T04:59:24.828Z,1012.98
2017-04-24T05:00:05.419Z,1012.98
2017-04-24T05:00:45.995Z,1013.01
2017-04-24T05:01:26.583Z,1012.94
2017-04-24T05:02:07.156Z,1012.93
2017-04-24T05:02:47.787Z,1012.94
2017-04-24T05:03:28.377Z,1012.98
2017-04-24T05:04:08.970Z,1012.96
2017-04-24T05:04:49.553Z,1012.95
2017-04-24T05:05:30.179Z,1012.95
2017-04-24T05:06:10.792Z,1012.98
2017-04-24T05:06:51.376Z,1013
2017-04-24T05:07:31.984Z,1012.98
2017-04-24T05:08:12.580Z,1013.02
2017-04-24T05:08:53.158Z,1013
2017-04-24T05:09:33.778Z,1012.99
2017-04-24T05:10:14.375Z,1013
2017-04-24T05:10:54.955Z,1013.02
2017-04-24T05:11:35.517Z,1013.02
2017-04-24T05:12:16.230Z,1013.02
2017-04-24T05:12:56.809Z,1013.04
2017-04-24T05:13:37.421Z,1013
2017-04-24T05:14:18.038Z,1012.99
2017-04-24T05:14:58.619Z,1013
2017-04-24T05:15:39.274Z,1013
2017-04-24T05:16:20.301Z,1013.01
2017-04-24T05:17:01.053Z,1013.08
2017-04-24T05:17:41.773Z,1012.98
2017-04-24T05:18:22.354Z,1013.02
2017-04-24T05:19:02.960Z,1013.03
2017-04-24T05:19:43.575Z,1013.02
2017-04-24T05:20:24.298Z,1013.06
2017-04-24T05:21:04.876Z,1013.02
2017-04-24T05:21:45.463Z,1013.02
2017-04-24T05:22:26.082Z,1013.02
2017-04-24T05:23:06.793Z,1012.99
2017-04-24T05:23:47.377Z,1013.02
2017-04-24T05:24:28.003Z,1012.97
2017-04-24T05:25:08.616Z,1013.01
2017-04-24T05:25:49.205Z,1013.02
2017-04-24T05:26:29.788Z,1012.99
2017-04-24T05:27:10.367Z,1013
2017-04-24T05:27:50.954Z,1012.96
2017-04-24T05:28:31.539Z,1012.99
2017-04-24T05:29:12.132Z,1013.04
2017-04-24T05:29:52.709Z,1013.02
2017-04-24T05:30:33.284Z,1012.98
2017-04-24T05:31:13.874Z,1013.02
2017-04-24T05:31:54.476Z,1013.01
2017-04-24T05:32:35.082Z,1013.01
2017-04-24T05:33:15.689Z,1012.99
2017-04-24T05:33:56.281Z,1012.98
2017-04-24T05:34:36.904Z,1012.99
2017-04-24T05:35:17.484Z,1012.97
2017-04-24T05:35:58.162Z,1012.92
2017-04-24T05:36:38.781Z,1012.95
2017-04-24T05:37:19.376Z,1012.97
2017-04-24T05:37:59.975Z,1012.98
2017-04-24T05:38:40.619Z,1012.99
2017-04-24T05:39:21.195Z,1012.99
2017-04-24T05:40:01.775Z,1013
2017-04-24T05:40:42.366Z,1013.01
2017-04-24T05:41:22.954Z,1013.02
2017-04-24T05:42:03.538Z,1013.02
2017-04-24T05:42:44.153Z,1013.06
2017-04-24T05:43:24.749Z,1013.06
2017-04-24T05:44:05.321Z,1013.04
2017-04-24T05:44:45.917Z,1013.07
2017-04-24T05:45:26.487Z,1013.04
2017-04-24T05:46:07.076Z,1013.08
2017-04-24T05:46:47.655Z,1013.07
2017-04-24T05:47:28.231Z,1013.05
2017-04-24T05:48:08.805Z,1013.01
2017-04-24T05:48:49.381Z,1013.05
2017-04-24T05:49:29.981Z,1013.05
2017-04-24T05:50:10.555Z,1013.03
2017-04-24T05:50:51.154Z,1013.01
2017-04-24T05:51:31.789Z,1012.95
2017-04-24T05:52:12.346Z,1012.97
2017-04-24T05:52:52.923Z,1012.98
2017-04-24T05:53:33.510Z,1012.95
2017-04-24T05:54:14.089Z,1012.95
2017-04-24T05:54:54.668Z,1012.97
2017-04-24T05:55:35.254Z,1012.93
2017-04-24T05:56:15.904Z,1012.93
2017-04-24T05:56:56.466Z,1012.99
2017-04-24T05:57:37.059Z,1012.99
2017-04-24T05:58:17.666Z,1012.97
2017-04-24T05:58:58.256Z,1013.01
2017-04-24T05:59:38.828Z,1012.99
2017-04-24T06:00:19.450Z,1012.99
2017-04-24T06:01:00.044Z,1013.01
2017-04-24T06:01:40.635Z,1013.02
2017-04-24T06:02:21.221Z,1013.02
2017-04-24T06:03:01.795Z,1012.99
2017-04-24T06:03:42.371Z,1012.98
2017-04-24T06:04:22.968Z,1013.01
2017-04-24T06:05:03.616Z,1013.02
2017-04-24T06:05:44.229Z,1013.02
2017-04-24T06:06:24.803Z,1013.01
2017-04-24T06:07:05.398Z,1013.02
2017-04-24T06:07:45.971Z,1013.05
2017-04-24T06:08:26.601Z,1013.01
2017-04-24T06:09:07.216Z,1013.05
2017-04-24T06:09:47.805Z,1013.02
2017-04-24T06:10:28.457Z,1013.03
2017-04-24T06:11:09.030Z,1013.02
2017-04-24T06:11:49.641Z,1013.02
2017-04-24T06:12:30.313Z,1013.06
2017-04-24T06:13:10.949Z,1012.99
2017-04-24T06:13:51.577Z,1013.04
2017-04-24T06:14:32.185Z,1013.08
2017-04-24T06:15:12.798Z,1013.04
2017-04-24T06:15:53.379Z,1013.05
2017-04-24T06:16:33.973Z,1013.06
2017-04-24T06:17:14.618Z,1013.06
2017-04-24T06:17:55.236Z,1013.11
2017-04-24T06:18:35.844Z,1013.11
2017-04-24T06:19:16.408Z,1013.12
2017-04-24T06:19:57.020Z,1013.16
2017-04-24T06:20:37.630Z,1013.1
2017-04-24T06:21:18.248Z,1013.09
2017-04-24T06:21:58.826Z,1013.18
2017-04-24T06:22:39.470Z,1013.14
2017-04-24T06:23:20.024Z,1013.14
2017-04-24T06:24:00.606Z,1013.11
2017-04-24T06:24:41.213Z,1013.12
2017-04-24T06:25:21.840Z,1013.13
2017-04-24T06:26:02.461Z,1013.05
2017-04-24T06:26:43.163Z,1013.13
2017-04-24T06:27:23.698Z,1013.08
2017-04-24T06:28:04.309Z,1013.08
2017-04-24T06:28:44.923Z,1013.07
2017-04-24T06:29:25.544Z,1013.11
2017-04-24T06:30:06.151Z,1013.18
2017-04-24T06:30:46.759Z,1013.19
2017-04-24T06:31:27.374Z,1013.17
2017-04-24T06:32:07.998Z,1013.2
2017-04-24T06:32:48.724Z,1013.13
2017-04-24T06:33:29.433Z,1013.13
2017-04-24T06:34:10.182Z,1013.15
2017-04-24T06:34:50.811Z,1013.13
2017-04-24T06:35:31.439Z,1013.13
2017-04-24T06:36:12.123Z,1013.16
2017-04-24T06:36:52.738Z,1013.1
2017-04-24T06:37:33.353Z,1013.13
2017-04-24T06:38:13.980Z,1013.15
2017-04-24T06:38:54.598Z,1013.09
2017-04-24T06:39:35.234Z,1013.07
2017-04-24T06:40:15.855Z,1013.07
2017-04-24T06:40:56.448Z,1013.11
2017-04-24T06:41:37.057Z,1013.1
2017-04-24T06:42:17.688Z,1013.06
2017-04-24T06:42:58.271Z,1013.12
2017-04-24T06:43:38.869Z,1013.07
2017-04-24T06:44:19.476Z,1013.07
2017-04-24T06:45:00.114Z,1013.03
2017-04-24T06:45:40.720Z,1013.06
2017-04-24T06:46:21.286Z,1013.01
2017-04-24T06:47:01.878Z,1013.03
2017-04-24T06:47:42.464Z,1013.01
2017-04-24T06:48:23.058Z,1012.98
2017-04-24T06:49:03.666Z,1013.01
2017-04-24T06:49:44.306Z,1013.02
2017-04-24T06:50:24.863Z,1012.98
2017-04-24T06:51:05.454Z,1012.97
2017-04-24T06:51:46.124Z,1013.03
2017-04-24T06:52:26.693Z,1012.98
2017-04-24T06:53:07.354Z,1013
2017-04-24T06:53:47.958Z,1013
2017-04-24T06:54:28.552Z,1013.03
2017-04-24T06:55:09.159Z,1013.02
2017-04-24T06:55:49.752Z,1012.98
2017-04-24T06:56:30.398Z,1013
2017-04-24T06:57:11.826Z,1013.02
2017-04-24T06:57:52.450Z,1013.07
2017-04-24T06:58:33.048Z,1013
2017-04-24T06:59:13.725Z,1013.04
2017-04-24T06:59:54.349Z,1012.99
2017-04-24T07:00:34.961Z,1012.99
2017-04-24T07:01:15.566Z,1013.02
2017-04-24T07:01:56.177Z,1012.98
2017-04-24T07:02:36.792Z,1012.97
2017-04-24T07:03:17.673Z,1013.01
2017-04-24T07:03:58.275Z,1012.96
2017-04-24T07:04:38.853Z,1012.99
2017-04-24T07:05:19.452Z,1012.93
2017-04-24T07:06:00.017Z,1012.96
2017-04-24T07:06:40.634Z,1012.89
2017-04-24T07:07:21.247Z,1012.83
2017-04-24T07:08:01.819Z,1012.85
2017-04-24T07:08:42.425Z,1012.83
2017-04-24T07:09:23.017Z,1012.82
2017-04-24T07:10:04.930Z,1012.8
2017-04-24T07:10:45.513Z,1012.79
2017-04-24T07:11:26.109Z,1012.8
2017-04-24T07:12:08.037Z,1012.79
2017-04-24T07:12:48.619Z,1012.75
2017-04-24T07:13:29.205Z,1012.79
2017-04-24T07:14:10.572Z,1012.75
2017-04-24T07:14:50.988Z,1012.73
2017-04-24T07:15:31.618Z,1012.73
2017-04-24T07:16:12.217Z,1012.74
2017-04-24T07:16:52.821Z,1012.72
2017-04-24T07:17:33.431Z,1012.68
2017-04-24T07:18:14.226Z,1012.71
2017-04-24T07:18:54.828Z,1012.69
2017-04-24T07:19:35.410Z,1012.67
2017-04-24T07:20:15.978Z,1012.66
2017-04-24T07:20:58.041Z,1012.67
2017-04-24T07:21:38.625Z,1012.67
2017-04-24T07:22:19.201Z,1012.64
2017-04-24T07:22:59.782Z,1012.64
2017-04-24T07:23:40.382Z,1012.64
2017-04-24T07:24:21.006Z,1012.64
2017-04-24T07:25:01.670Z,1012.67
2017-04-24T07:25:42.316Z,1012.66
2017-04-24T07:26:22.919Z,1012.64
2017-04-24T07:27:03.755Z,1012.66
2017-04-24T07:27:45.240Z,1012.72
2017-04-24T07:28:25.357Z,1012.57
2017-04-24T07:29:05.955Z,1012.58
2017-04-24T07:29:46.559Z,1012.57
2017-04-24T07:30:27.275Z,1012.6
2017-04-24T07:31:07.910Z,1012.6
2017-04-24T07:31:48.514Z,1012.63
2017-04-24T07:32:29.350Z,1012.65
2017-04-24T07:33:10.116Z,1012.59
2017-04-24T07:33:50.776Z,1012.65
2017-04-24T07:34:31.379Z,1012.59
2017-04-24T07:35:11.967Z,1012.59
2017-04-24T07:35:52.968Z,1012.6
2017-04-24T07:36:33.642Z,1012.56
2017-04-24T07:37:14.386Z,1012.51
2017-04-24T07:37:54.987Z,1012.55
2017-04-24T07:38:35.827Z,1012.53
2017-04-24T07:39:16.511Z,1012.5
2017-04-24T07:39:57.127Z,1012.5
2017-04-24T07:40:38.127Z,1012.45
2017-04-24T07:41:19.002Z,1012.46
2017-04-24T07:42:00.093Z,1012.53
2017-04-24T07:42:40.699Z,1012.47
2017-04-24T07:43:21.290Z,1012.48
2017-04-24T07:44:01.890Z,1012.44
2017-04-24T07:44:42.531Z,1012.45
2017-04-24T07:45:23.213Z,1012.45
2017-04-24T07:46:03.813Z,1012.41
2017-04-24T07:46:44.436Z,1012.34
2017-04-24T07:47:25.123Z,1012.33
2017-04-24T07:48:05.718Z,1012.36
2017-04-24T07:48:46.307Z,1012.31
2017-04-24T07:49:26.950Z,1012.33
2017-04-24T07:50:07.533Z,1012.33
2017-04-24T07:50:48.251Z,1012.34
2017-04-24T07:51:28.903Z,1012.3
2017-04-24T07:52:09.474Z,1012.26
2017-04-24T07:52:50.057Z,1012.24
2017-04-24T07:53:30.632Z,1012.23
2017-04-24T07:54:11.213Z,1012.25
2017-04-24T07:54:51.803Z,1012.23
2017-04-24T07:55:32.481Z,1012.2
2017-04-24T07:56:13.461Z,1012.18
2017-04-24T07:56:54.536Z,1012.18
2017-04-24T07:57:35.639Z,1012.14
2017-04-24T07:58:16.278Z,1012.11
2017-04-24T07:58:56.905Z,1012.11
2017-04-24T07:59:37.501Z,1012.09
2017-04-24T08:00:19.094Z,1012.09
2017-04-24T08:00:59.776Z,1012.08
2017-04-24T08:01:40.528Z,1012.02
2017-04-24T08:02:21.168Z,1012.07
2017-04-24T08:03:02.362Z,1012.11
2017-04-24T08:03:43.101Z,1012
2017-04-24T08:04:24.108Z,1011.95
2017-04-24T08:05:04.919Z,1011.92
2017-04-24T08:05:45.587Z,1011.95
2017-04-24T08:06:26.274Z,1011.95
2017-04-24T08:07:07.075Z,1011.89
2017-04-24T08:07:49.267Z,1011.89
2017-04-24T08:08:29.980Z,1011.83
2017-04-24T08:09:10.576Z,1011.86
2017-04-24T08:09:51.322Z,1011.84
2017-04-24T08:10:32.005Z,1011.8
2017-04-24T08:11:12.691Z,1011.83
2017-04-24T08:11:53.370Z,1011.76
2017-04-24T08:12:34.773Z,1011.81
2017-04-24T08:13:15.405Z,1011.76
2017-04-24T08:13:56.086Z,1011.83
2017-04-24T08:14:36.752Z,1011.78
2017-04-24T08:15:17.392Z,1011.81